createdAt,value
2023-04-01T00:01:44.411Z,8.80
2023-04-01T00:04:13.117Z,8.80
2023-04-01T00:06:42.229Z,8.00
2023-04-01T00:17:11.347Z,7.90
2023-04-01T00:19:39.006Z,7.70
2023-04-01T00:22:06.785Z,6.40
2023-04-01T00:24:34.325Z,7.70
2023-04-01T00:27:01.995Z,6.50
2023-04-01T00:29:31.184Z,7.40
2023-04-01T00:31:58.895Z,7.30
2023-04-01T00:34:27.027Z,8.90
2023-04-01T00:36:54.794Z,7.40
2023-04-01T00:39:22.453Z,8.70
2023-04-01T00:41:50.419Z,7.90
2023-04-01T00:44:27.006Z,8.80
2023-04-01T00:46:57.229Z,9.00
2023-04-01T00:49:27.444Z,6.10
2023-04-01T00:51:56.123Z,7.70
2023-04-01T00:54:24.093Z,7.70
2023-04-01T00:56:57.065Z,8.70
2023-04-01T00:59:31.767Z,8.10
2023-04-01T01:01:58.990Z,8.20
2023-04-01T01:04:27.845Z,7.80
2023-04-01T01:07:26.526Z,7.50
2023-04-01T01:10:03.508Z,7.60
2023-04-01T01:12:59.535Z,7.50
2023-04-01T01:15:47.182Z,4.90
2023-04-01T01:18:33.562Z,7.60
2023-04-01T01:21:21.408Z,6.70
2023-04-01T01:24:07.719Z,8.00
2023-04-01T01:26:45.093Z,8.40
2023-04-01T01:29:37.326Z,6.20
2023-04-01T01:32:26.097Z,7.60
2023-04-01T01:35:31.866Z,6.80
2023-04-01T01:38:02.723Z,8.70
2023-04-01T01:40:30.434Z,8.60
2023-04-01T01:43:01.081Z,7.30
2023-04-01T01:45:28.318Z,7.70
2023-04-01T01:47:55.913Z,6.40
2023-04-01T01:50:23.745Z,9.70
2023-04-01T01:52:51.424Z,8.90
2023-04-01T01:55:28.290Z,7.30
2023-04-01T01:57:58.817Z,9.20
2023-04-01T02:00:26.986Z,6.80
2023-04-01T02:02:55.179Z,7.80
2023-04-01T02:05:24.458Z,10.70
2023-04-01T02:08:15.848Z,5.80
2023-04-01T02:10:47.328Z,6.50
2023-04-01T02:13:22.767Z,9.60
2023-04-01T02:15:50.556Z,7.30
2023-04-01T02:18:18.408Z,7.00
2023-04-01T02:20:50.054Z,9.80
2023-04-01T02:23:18.226Z,8.30
2023-04-01T02:25:45.706Z,7.60
2023-04-01T02:28:14.984Z,9.00
2023-04-01T02:30:43.062Z,6.50
2023-04-01T02:33:15.122Z,8.10
2023-04-01T02:35:43.310Z,6.20
2023-04-01T02:38:10.906Z,8.60
2023-04-01T02:40:50.289Z,7.80
2023-04-01T02:43:20.526Z,6.90
2023-04-01T02:45:52.380Z,5.80
2023-04-01T02:48:20.138Z,7.70
2023-04-01T02:50:47.492Z,7.40
2023-04-01T02:53:16.290Z,7.50
2023-04-01T02:55:45.598Z,6.80
2023-04-01T02:58:19.614Z,5.30
2023-04-01T03:00:47.285Z,6.50
2023-04-01T03:03:15.701Z,7.70
2023-04-01T03:05:43.908Z,8.40
2023-04-01T03:08:12.390Z,5.80
2023-04-01T03:40:05.541Z,6.00
2023-04-01T03:42:34.977Z,6.20
2023-04-01T03:45:05.264Z,5.80
2023-04-01T03:47:32.583Z,7.40
2023-04-01T03:50:00.498Z,7.20
2023-04-01T03:52:28.359Z,6.70
2023-04-01T03:54:55.604Z,6.30
2023-04-01T03:57:25.834Z,7.00
2023-04-01T03:59:53.997Z,6.80
2023-04-01T04:02:21.501Z,7.20
2023-04-01T04:04:49.046Z,5.90
2023-04-01T04:07:16.569Z,5.80
2023-04-01T04:10:00.425Z,6.20
2023-04-01T04:12:27.664Z,6.50
2023-04-01T04:14:55.738Z,5.40
2023-04-01T04:17:23.398Z,7.70
2023-04-01T04:19:51.878Z,6.00
2023-04-01T04:22:19.848Z,5.10
2023-04-01T04:24:47.405Z,5.80
2023-04-01T04:27:15.482Z,5.40
2023-04-01T04:29:49.389Z,5.60
2023-04-01T04:32:17.660Z,5.80
2023-04-01T04:34:45.330Z,5.90
2023-04-01T04:37:12.366Z,6.20
2023-04-01T04:39:40.465Z,6.10
2023-04-01T04:42:07.907Z,6.70
2023-04-01T04:44:36.324Z,6.10
2023-04-01T04:47:03.761Z,5.60
2023-04-01T04:49:33.354Z,5.60
2023-04-01T04:52:03.149Z,6.60
2023-04-01T04:54:30.605Z,5.50
2023-04-01T04:57:01.376Z,6.90
2023-04-01T04:59:32.222Z,5.00
2023-04-01T05:02:07.037Z,5.40
2023-04-01T05:04:36.717Z,5.60
2023-04-01T05:07:04.523Z,6.60
2023-04-01T05:09:32.758Z,3.50
2023-04-01T05:12:03.186Z,5.90
2023-04-01T05:14:40.072Z,5.00
2023-04-01T05:19:40.605Z,5.70
2023-04-01T05:22:08.166Z,5.30
2023-04-01T05:24:54.256Z,6.00
2023-04-01T05:35:05.814Z,6.30
2023-04-01T05:37:37.449Z,6.30
2023-04-01T05:40:09.007Z,6.10
2023-04-01T05:42:38.457Z,6.90
2023-04-01T05:45:08.637Z,5.70
2023-04-01T05:48:04.337Z,6.10
2023-04-01T05:50:38.150Z,5.00
2023-04-01T05:53:07.246Z,6.00
2023-04-01T05:55:37.479Z,6.30
2023-04-01T05:58:06.361Z,7.30
2023-04-01T06:00:35.559Z,5.80
2023-04-01T06:03:24.099Z,5.80
2023-04-01T06:05:52.796Z,5.60
2023-04-01T06:08:26.819Z,6.30
2023-04-01T06:11:01.426Z,6.00
2023-04-01T06:14:08.412Z,6.20
2023-04-01T06:17:04.239Z,5.80
2023-04-01T06:19:57.710Z,6.00
2023-04-01T06:22:49.227Z,6.70
2023-04-01T06:25:37.265Z,5.80
2023-04-01T06:28:28.370Z,6.20
2023-04-01T06:31:27.694Z,6.60
2023-04-01T06:34:00.561Z,5.40
2023-04-01T06:36:41.501Z,4.70
2023-04-01T06:39:24.562Z,4.80
2023-04-01T06:41:56.228Z,5.80
2023-04-01T06:44:49.854Z,5.20
2023-04-01T06:47:50.746Z,6.10
2023-04-01T06:50:55.048Z,4.40
2023-04-01T06:54:01.723Z,5.50
2023-04-01T06:56:51.270Z,4.50
2023-04-01T06:59:29.960Z,4.50
2023-04-01T07:02:08.964Z,5.90
2023-04-01T07:04:40.909Z,4.90
2023-04-01T07:07:36.624Z,5.00
2023-04-01T07:10:13.916Z,5.00
2023-04-01T07:13:03.769Z,5.50
2023-04-01T07:16:04.835Z,5.30
2023-04-01T07:18:42.629Z,3.50
2023-04-01T07:21:33.753Z,5.30
2023-04-01T07:24:10.457Z,5.30
2023-04-01T07:26:45.626Z,4.80
2023-04-01T07:29:17.253Z,5.30
2023-04-01T07:32:15.487Z,5.00
2023-04-01T07:34:52.056Z,4.40
2023-04-01T07:37:32.110Z,5.60
2023-04-01T07:40:19.639Z,6.00
2023-04-01T07:43:06.572Z,5.70
2023-04-01T07:45:57.381Z,5.30
2023-04-01T07:48:32.988Z,5.10
2023-04-01T07:51:09.992Z,6.10
2023-04-01T07:53:50.759Z,6.80
2023-04-01T07:56:32.879Z,7.30
2023-04-01T07:59:23.666Z,6.60
2023-04-01T08:02:19.846Z,5.40
2023-04-01T08:04:58.178Z,4.00
2023-04-01T08:07:42.376Z,5.70
2023-04-01T08:10:52.830Z,5.40
2023-04-01T08:14:02.163Z,4.00
2023-04-01T08:17:02.682Z,4.00
2023-04-01T08:19:53.255Z,4.30
2023-04-01T08:22:30.623Z,4.60
2023-04-01T08:25:03.955Z,3.90
2023-04-01T08:27:37.790Z,4.20
2023-04-01T08:30:35.330Z,4.30
2023-04-01T08:33:29.106Z,5.10
2023-04-01T08:36:12.617Z,4.70
2023-04-01T08:38:45.448Z,5.50
2023-04-01T08:41:36.851Z,7.90
2023-04-01T08:45:01.847Z,5.80
2023-04-01T08:47:51.333Z,7.70
2023-04-01T08:50:35.262Z,6.10
2023-04-01T08:54:05.699Z,4.60
2023-04-01T08:56:43.122Z,5.00
2023-04-01T08:59:32.673Z,4.60
2023-04-01T09:02:27.581Z,6.10
2023-04-01T09:05:27.897Z,6.80
2023-04-01T09:08:21.578Z,6.40
2023-04-01T09:11:01.830Z,5.90
2023-04-01T09:14:39.625Z,5.20
2023-04-01T09:17:27.265Z,5.20
2023-04-01T09:20:45.608Z,7.90
2023-04-01T09:23:36.308Z,6.80
2023-04-01T09:26:07.868Z,3.90
2023-04-01T09:28:42.589Z,5.00
2023-04-01T09:31:17.364Z,5.50
2023-04-01T09:34:09.051Z,4.30
2023-04-01T09:37:18.789Z,4.30
2023-04-01T09:39:54.779Z,6.20
2023-04-01T09:42:41.136Z,5.70
2023-04-01T09:45:22.828Z,6.60
2023-04-01T09:48:22.955Z,4.00
2023-04-01T09:50:54.841Z,5.10
2023-04-01T09:53:35.501Z,5.10
2023-04-01T09:56:28.742Z,4.50
2023-04-01T09:59:24.580Z,4.50
2023-04-01T10:02:30.067Z,6.30
2023-04-01T10:05:36.791Z,4.30
2023-04-01T10:08:11.817Z,5.80
2023-04-01T10:11:14.534Z,5.60
2023-04-01T10:14:19.345Z,6.10
2023-04-01T10:17:19.963Z,5.20
2023-04-01T10:20:11.808Z,5.80
2023-04-01T10:23:01.953Z,6.10
2023-04-01T10:25:53.094Z,5.90
2023-04-01T10:28:37.248Z,5.00
2023-04-01T10:31:42.435Z,6.00
2023-04-01T10:34:48.403Z,5.10
2023-04-01T10:38:02.263Z,5.40
2023-04-01T10:40:45.001Z,4.70
2023-04-01T10:44:23.741Z,4.80
2023-04-01T10:46:58.579Z,6.20
2023-04-01T10:49:55.095Z,6.00
2023-04-01T10:52:49.131Z,4.70
2023-04-01T10:55:55.346Z,4.80
2023-04-01T10:59:39.603Z,4.50
2023-04-01T11:03:21.520Z,4.30
2023-04-01T11:06:40.474Z,6.00
2023-04-01T11:09:28.817Z,4.40
2023-04-01T11:12:00.289Z,5.30
2023-04-01T11:14:37.142Z,4.20
2023-04-01T11:17:37.389Z,4.70
2023-04-01T11:20:44.284Z,4.60
2023-04-01T11:23:19.309Z,5.10
2023-04-01T11:25:54.007Z,3.00
2023-04-01T11:29:01.216Z,4.10
2023-04-01T11:31:38.626Z,4.40
2023-04-01T11:34:29.089Z,4.60
2023-04-01T11:37:11.076Z,3.90
2023-04-01T11:40:07.935Z,3.10
2023-04-01T11:43:38.481Z,4.10
2023-04-01T11:46:43.116Z,4.50
2023-04-01T11:49:22.016Z,2.90
2023-04-01T11:52:21.219Z,4.20
2023-04-01T11:55:19.712Z,3.40
2023-04-01T11:57:58.015Z,3.80
2023-04-01T12:00:49.854Z,4.50
2023-04-01T12:03:28.149Z,3.80
2023-04-01T12:06:28.088Z,5.00
2023-04-01T12:09:16.217Z,4.20
2023-04-01T12:12:10.638Z,3.30
2023-04-01T12:15:01.913Z,3.70
2023-04-01T12:18:00.489Z,4.00
2023-04-01T12:20:51.770Z,3.60
2023-04-01T12:23:29.662Z,4.40
2023-04-01T12:26:11.516Z,3.40
2023-04-01T12:28:59.568Z,4.40
2023-04-01T12:31:39.737Z,4.60
2023-04-01T12:34:45.606Z,4.20
2023-04-01T12:37:20.004Z,4.10
2023-04-01T12:40:16.422Z,4.60
2023-04-01T12:42:47.872Z,4.50
2023-04-01T12:45:42.074Z,5.30
2023-04-01T12:48:23.036Z,4.70
2023-04-01T12:51:16.708Z,5.70
2023-04-01T12:54:13.951Z,5.30
2023-04-01T12:57:20.556Z,5.00
2023-04-01T13:00:27.857Z,3.30
2023-04-01T13:03:39.050Z,4.70
2023-04-01T13:06:26.557Z,4.60
2023-04-01T13:09:27.694Z,4.30
2023-04-01T13:12:17.712Z,4.20
2023-04-01T13:14:58.471Z,4.30
2023-04-01T13:17:45.569Z,4.80
2023-04-01T13:20:22.938Z,3.70
2023-04-01T13:23:20.813Z,4.60
2023-04-01T13:26:13.769Z,3.60
2023-04-01T13:28:55.532Z,3.40
2023-04-01T13:31:29.338Z,5.30
2023-04-01T13:34:14.736Z,4.40
2023-04-01T13:37:10.566Z,5.20
2023-04-01T13:39:49.895Z,3.60
2023-04-01T13:42:30.259Z,3.80
2023-04-01T13:45:04.681Z,4.30
2023-04-01T13:48:11.049Z,5.70
2023-04-01T13:51:28.983Z,3.90
2023-04-01T13:54:16.516Z,4.60
2023-04-01T13:57:11.335Z,5.00
2023-04-01T13:59:49.722Z,5.00
2023-04-01T14:02:30.518Z,4.60
2023-04-01T14:05:42.210Z,3.90
2023-04-01T14:08:19.191Z,4.40
2023-04-01T14:11:16.637Z,3.90
2023-04-01T14:14:10.815Z,3.80
2023-04-01T14:17:20.906Z,4.70
2023-04-01T14:20:17.416Z,4.40
2023-04-01T14:23:19.679Z,5.30
2023-04-01T14:26:02.603Z,4.80
2023-04-01T14:28:46.032Z,5.20
2023-04-01T14:31:39.533Z,4.20
2023-04-01T14:34:16.293Z,4.20
2023-04-01T14:36:53.358Z,4.90
2023-04-01T14:39:21.734Z,4.80
2023-04-01T14:42:03.908Z,4.00
2023-04-01T14:44:50.849Z,3.50
2023-04-01T14:48:01.728Z,3.70
2023-04-01T14:50:32.148Z,4.20
2023-04-01T14:53:23.675Z,4.60
2023-04-01T14:55:54.096Z,4.80
2023-04-01T14:58:26.375Z,4.00
2023-04-01T15:01:11.257Z,4.30
2023-04-01T15:03:56.917Z,4.20
2023-04-01T15:07:04.042Z,4.50
2023-04-01T15:09:48.095Z,5.20
2023-04-01T15:12:45.925Z,4.30
2023-04-01T15:15:39.439Z,4.00
2023-04-01T15:18:29.983Z,4.60
2023-04-01T15:21:20.718Z,4.50
2023-04-01T15:24:19.383Z,4.60
2023-04-01T15:27:13.789Z,4.90
2023-04-01T15:29:54.440Z,4.60
2023-04-01T15:32:26.160Z,4.90
2023-04-01T15:35:00.174Z,4.60
2023-04-01T15:37:46.602Z,4.40
2023-04-01T15:40:27.175Z,4.90
2023-04-01T15:43:01.804Z,4.20
2023-04-01T15:45:36.551Z,3.40
2023-04-01T15:48:30.168Z,3.70
2023-04-01T15:51:10.560Z,3.50
2023-04-01T15:53:49.079Z,3.30
2023-04-01T15:56:42.418Z,3.90
2023-04-01T15:59:30.479Z,4.20
2023-04-01T16:02:42.237Z,4.80
2023-04-01T16:05:30.903Z,2.90
2023-04-01T16:08:17.901Z,3.90
2023-04-01T16:10:59.392Z,4.40
2023-04-01T16:13:59.468Z,4.50
2023-04-01T16:16:59.873Z,4.70
2023-04-01T16:19:50.371Z,4.30
2023-04-01T16:23:00.121Z,2.90
2023-04-01T16:25:40.573Z,4.70
2023-04-01T16:28:38.324Z,3.50
2023-04-01T16:31:31.943Z,3.90
2023-04-01T16:34:32.173Z,4.30
2023-04-01T16:37:16.889Z,4.20
2023-04-01T16:39:54.900Z,3.90
2023-04-01T16:42:36.542Z,3.80
2023-04-01T16:45:08.153Z,4.50
2023-04-01T16:47:58.978Z,4.40
2023-04-01T16:51:05.547Z,5.10
2023-04-01T16:53:47.236Z,3.30
2023-04-01T16:56:22.214Z,4.20
2023-04-01T16:59:18.885Z,4.60
2023-04-01T17:02:10.508Z,4.30
2023-04-01T17:04:46.368Z,4.30
2023-04-01T17:07:23.354Z,5.10
2023-04-01T17:09:57.391Z,3.60
2023-04-01T17:12:34.764Z,3.70
2023-04-01T17:15:23.429Z,4.30
2023-04-01T17:18:13.081Z,4.60
2023-04-01T17:20:54.159Z,4.50
2023-04-01T17:23:27.452Z,5.40
2023-04-01T17:26:26.200Z,3.40
2023-04-01T17:29:18.175Z,6.40
2023-04-01T17:31:55.363Z,5.50
2023-04-01T17:34:39.201Z,4.50
2023-04-01T17:37:17.307Z,5.80
2023-04-01T17:39:52.045Z,6.00
2023-04-01T17:42:34.282Z,3.80
2023-04-01T17:45:02.924Z,5.40
2023-04-01T17:48:08.589Z,5.30
2023-04-01T17:50:53.181Z,6.80
2023-04-01T17:53:25.204Z,6.40
2023-04-01T17:56:00.139Z,5.20
2023-04-01T17:59:08.603Z,5.80
2023-04-01T18:02:08.981Z,6.10
2023-04-01T18:04:43.291Z,6.70
2023-04-01T18:07:25.491Z,6.80
2023-04-01T18:10:22.586Z,6.20
2023-04-01T18:12:59.766Z,3.70
2023-04-01T18:15:59.872Z,5.30
2023-04-01T18:18:38.264Z,5.80
2023-04-01T18:21:45.251Z,5.50
2023-04-01T18:24:28.999Z,5.00
2023-04-01T18:27:05.944Z,5.70
2023-04-01T18:29:56.059Z,3.50
2023-04-01T18:32:30.052Z,4.60
2023-04-01T18:35:36.379Z,5.00
2023-04-01T18:38:14.013Z,5.50
2023-04-01T18:40:52.957Z,5.70
2023-04-01T18:43:43.360Z,6.60
2023-04-01T18:46:19.423Z,5.30
2023-04-01T18:49:06.840Z,6.20
2023-04-01T18:51:58.478Z,5.30
2023-04-01T18:54:35.953Z,6.50
2023-04-01T18:57:24.709Z,6.00
2023-04-01T18:59:58.230Z,5.60
2023-04-01T19:02:29.013Z,3.80
2023-04-01T19:05:34.078Z,5.40
2023-04-01T19:08:32.279Z,6.60
2023-04-01T19:11:03.309Z,6.50
2023-04-01T19:13:41.311Z,6.90
2023-04-01T19:16:45.220Z,7.80
2023-04-01T19:19:19.892Z,5.30
2023-04-01T19:22:14.329Z,5.60
2023-04-01T19:24:58.162Z,5.20
2023-04-01T19:27:32.995Z,4.80
2023-04-01T19:30:10.796Z,5.00
2023-04-01T19:32:58.222Z,5.80
2023-04-01T19:36:04.460Z,3.00
2023-04-01T19:38:40.917Z,4.60
2023-04-01T19:41:41.924Z,4.30
2023-04-01T19:44:24.648Z,4.70
2023-04-01T19:46:55.666Z,4.60
2023-04-01T19:49:37.764Z,4.90
2023-04-01T19:52:16.374Z,2.90
2023-04-01T19:55:06.083Z,3.90
2023-04-01T19:57:48.109Z,5.40
2023-04-01T20:00:27.526Z,6.00
2023-04-01T20:03:05.179Z,6.10
2023-04-01T20:06:00.284Z,5.50
2023-04-01T20:08:46.282Z,4.30
2023-04-01T20:11:37.416Z,5.50
2023-04-01T20:14:21.370Z,6.70
2023-04-01T20:17:21.966Z,5.70
2023-04-01T20:19:56.892Z,5.40
2023-04-01T20:22:44.435Z,4.50
2023-04-01T20:25:22.632Z,5.70
2023-04-01T20:28:13.057Z,7.30
2023-04-01T20:31:06.805Z,5.80
2023-04-01T20:34:27.616Z,6.30
2023-04-01T20:37:12.954Z,7.00
2023-04-01T20:40:04.149Z,4.00
2023-04-01T20:42:51.010Z,5.50
2023-04-01T20:45:34.473Z,6.20
2023-04-01T20:48:28.011Z,6.80
2023-04-01T20:51:05.131Z,7.80
2023-04-01T20:54:01.939Z,5.40
2023-04-01T20:56:36.636Z,5.50
2023-04-01T20:59:30.960Z,5.80
2023-04-01T21:02:03.335Z,4.60
2023-04-01T21:04:32.548Z,4.50
2023-04-01T21:07:17.538Z,5.00
2023-04-01T21:10:24.785Z,2.70
2023-04-01T21:13:06.271Z,3.10
2023-04-01T21:16:02.844Z,3.70
2023-04-01T21:26:16.081Z,5.50
2023-04-01T21:29:19.277Z,2.70
2023-04-01T21:32:13.257Z,2.90
2023-04-01T21:34:56.596Z,3.20
2023-04-01T21:37:32.769Z,4.20
2023-04-01T21:40:11.056Z,5.00
2023-04-01T21:43:01.967Z,5.40
2023-04-01T21:46:06.134Z,5.40
2023-04-01T21:48:41.934Z,3.20
2023-04-01T21:51:48.609Z,4.30
2023-04-01T21:54:20.330Z,5.30
2023-04-01T21:57:21.772Z,8.50
2023-04-01T22:00:18.901Z,8.10
2023-04-01T22:03:26.738Z,8.90
2023-04-01T22:06:11.770Z,6.20
2023-04-01T22:08:54.557Z,6.10
2023-04-01T22:11:35.737Z,7.00
2023-04-01T22:14:21.438Z,9.20
2023-04-01T22:17:18.309Z,9.10
2023-04-01T22:19:51.991Z,8.10
2023-04-01T22:22:52.397Z,8.50
2023-04-01T22:25:34.674Z,4.90
2023-04-01T22:28:09.230Z,6.40
2023-04-01T22:30:50.709Z,6.60
2023-04-01T22:33:55.544Z,10.20
2023-04-01T22:36:46.449Z,10.30
2023-04-01T22:39:19.208Z,9.90
2023-04-01T22:41:52.559Z,8.80
2023-04-01T22:44:43.532Z,5.80
2023-04-01T22:47:18.415Z,10.40
2023-04-01T22:50:00.662Z,10.80
2023-04-01T22:52:34.921Z,10.50
2023-04-01T22:55:13.735Z,10.90
2023-04-01T22:57:51.022Z,11.10
2023-04-01T23:00:21.843Z,12.10
2023-04-01T23:03:08.038Z,6.70
2023-04-01T23:05:43.970Z,7.70
2023-04-01T23:08:33.997Z,8.70
2023-04-01T23:11:07.685Z,9.40
2023-04-01T23:13:41.213Z,9.50
2023-04-01T23:16:09.703Z,8.60
2023-04-01T23:19:09.071Z,5.40
2023-04-01T23:22:01.375Z,8.20
2023-04-01T23:24:35.310Z,9.10
2023-04-01T23:27:24.900Z,10.30
2023-04-01T23:29:53.799Z,8.10
2023-04-01T23:32:28.349Z,7.50
2023-04-01T23:34:58.624Z,5.50
2023-04-01T23:37:27.852Z,5.50
2023-04-01T23:39:57.946Z,6.10
2023-04-01T23:42:33.942Z,7.00
2023-04-01T23:45:07.199Z,7.90
2023-04-01T23:47:38.819Z,8.50
2023-04-01T23:50:24.835Z,8.60
2023-04-01T23:52:58.334Z,4.20
2023-04-01T23:55:28.706Z,5.50
2023-04-01T23:58:07.898Z,6.30
